• Join FlightAware (Why Join?)
  • Login
  • US Flag GB Flag 
14:02 EDT


 

Airport Tracker/Info


-or-


 

Live Flight TrackerFlight Track Log ✈ AFL150 ✈ 26-Dec-2013 ✈ UUEE / SVO - MUHA / HAV

Flight Track Log - Related Links

Times and Time Zones

All times are in EST time to prevent confusion due to time zone crossing. See the AFL150 flight status page for this flight to view local times or setup timezone preferences in your user account.

Time Position Orientation Groundspeed Altitude Reporting Facility
EST Latitude Longitude Course Direction KTS MPH feet Rate Location/Type
09:31 56.0736 37.1377 307° West  Level Estimated
09:32 56.1415 36.9734 307° West  Level Estimated
09:33 56.2091 36.8084 306° West  Level Estimated
09:34 56.2766 36.6429 306° West  Level Estimated
09:35 56.3438 36.4767 306° West  Level Estimated
09:36 56.4109 36.3100 306° West  Level Estimated
09:37 56.4776 36.1427 306° West  Level Estimated
09:38 56.5442 35.9748 306° West  Level Estimated
09:39 56.6105 35.8063 306° West  Level Estimated
09:40 56.6766 35.6373 305° West  Level Estimated
09:41 56.7425 35.4676 305° West  Level Estimated
09:42 56.8082 35.2973 305° West  Level Estimated
09:43 56.8736 35.1265 305° West  Level Estimated
09:44 56.9388 34.9550 305° West  Level Estimated
09:45 57.0037 34.7830 305° West  Level Estimated
09:46 57.0684 34.6103 305° West  Level Estimated
09:47 57.1329 34.4370 304° West  Level Estimated
09:48 57.1971 34.2632 304° West  Level Estimated
09:49 57.2611 34.0887 304° West  Level Estimated
09:50 57.3248 33.9136 304° West  Level Estimated
09:51 57.3883 33.7380 304° West  Level Estimated
09:52 57.4516 33.5617 304° West  Level Estimated
09:53 57.5146 33.3848 304° West  Level Estimated
09:54 57.5765 33.2096 303° West  Level Estimated
09:55 57.6382 33.0338 303° West  Level Estimated
09:56 57.6997 32.8574 303° West  Level Estimated
09:57 57.7609 32.6805 303° West  Level Estimated
09:58 57.8219 32.5029 303° West  Level Estimated
09:59 57.8826 32.3247 303° West  Level Estimated
10:00 57.9430 32.1459 303° West  Level Estimated
10:01 58.0033 31.9665 302° West  Level Estimated
10:02 58.0632 31.7866 302° West  Level Estimated
10:03 58.1229 31.6060 302° West  Level Estimated
10:04 58.1824 31.4248 302° West  Level Estimated
10:05 58.2416 31.2430 302° West  Level Estimated
10:06 58.3005 31.0606 302° West  Level Estimated
10:07 58.3591 30.8776 301° West  Level Estimated
10:08 58.4176 30.6939 301° West  Level Estimated
10:09 58.4757 30.5097 301° West  Level Estimated
10:10 58.5336 30.3249 301° West  Level Estimated
10:11 58.5912 30.1394 301° West  Level Estimated
10:12 58.6485 29.9534 301° West  Level Estimated
10:13 58.7056 29.7667 301° West  Level Estimated
10:14 58.7624 29.5794 300° West  Level Estimated
10:15 58.8189 29.3915 300° West  Level Estimated
10:16 58.8752 29.2030 300° West  Level Estimated
10:17 58.9312 29.0139 300° West  Level Estimated
10:18 58.9869 28.8242 300° West  Level Estimated
10:19 59.0423 28.6338 300° West  Level Estimated
10:20 59.0975 28.4429 299° West  Level Estimated
10:21 59.1523 28.2513 299° West  Level Estimated
10:22 59.2069 28.0591 299° West  Level Estimated
10:23 59.2612 27.8663 299° West  Level Estimated
10:24 59.3152 27.6729 299° West  Level Estimated
10:25 59.3689 27.4789 299° West  Level Estimated
10:26 59.4224 27.2843 298° West  Level Estimated
10:27 59.4755 27.0890 298° West  Level Estimated
10:28 59.5284 26.8932 298° West  Level Estimated
10:29 59.5809 26.6967 298° West  Level Estimated
10:30 59.6332 26.4996 298° West  Level Estimated
10:31 59.6852 26.3019 298° West  Level Estimated
10:32 59.7368 26.1036 297° West  Level Estimated
10:33 59.7882 25.9046 297° West  Level Estimated
10:34 59.8393 25.7051 297° West  Level Estimated
10:35 59.8900 25.5049 297° West  Level Estimated
10:36 59.9405 25.3042 297° West  Level Estimated
10:37 59.9907 25.1028 297° West  Level Estimated
10:38 60.0405 24.9008 296° West  Level Estimated
10:39 60.0901 24.6982 296° West  Level Estimated
10:40 60.1393 24.4950 296° West  Level Estimated
10:41 60.1882 24.2912 296° West  Level Estimated
10:42 60.2368 24.0868 296° West  Level Estimated
10:43 60.2851 23.8818 295° West  Level Estimated
10:44 60.3331 23.6762 295° West  Level Estimated
10:45 60.3807 23.4699 295° West  Level Estimated
10:46 60.4281 23.2631 295° West  Level Estimated
10:47 60.4751 23.0557 295° West  Level Estimated
10:48 60.5218 22.8477 295° West  Level Estimated
10:49 60.5681 22.6390 294° West  Level Estimated
10:50 60.6142 22.4298 294° West  Level Estimated
10:51 60.6599 22.2200 294° West  Level Estimated
10:52 60.7052 22.0096 294° West  Level Estimated
10:53 60.7503 21.7986 294° West  Level Estimated
10:54 60.7950 21.5870 293° West  Level Estimated
10:55 60.8394 21.3748 293° West  Level Estimated
10:56 60.8834 21.1620 293° West  Level Estimated
10:57 60.9272 20.9486 293° West  Level Estimated
10:58 60.9705 20.7347 293° West  Level Estimated
10:59 61.0135 20.5202 293° West  Level Estimated
11:00 61.0562 20.3050 292° West  Level Estimated
11:01 61.0986 20.0894 292° West  Level Estimated
11:02 61.1406 19.8731 292° West  Level Estimated
11:03 61.1823 19.6563 292° West  Level Estimated
11:04 61.2236 19.4389 292° West  Level Estimated
11:05 61.2645 19.2209 291° West  Level Estimated
11:06 61.3051 19.0023 291° West  Level Estimated
11:07 61.3454 18.7832 291° West  Level Estimated
11:08 61.3853 18.5636 291° West  Level Estimated
11:09 61.4249 18.3433 291° West  Level Estimated
11:10 61.4641 18.1225 290° West  Level Estimated
11:11 61.5029 17.9012 290° West  Level Estimated
11:12 61.5414 17.6793 290° West  Level Estimated
11:13 61.5795 17.4569 290° West  Level Estimated
11:14 61.6173 17.2339 290° West  Level Estimated
11:15 61.6547 17.0104 289° West  Level Estimated
11:16 61.6917 16.7863 289° West  Level Estimated
11:17 61.7283 16.5617 289° West  Level Estimated
11:18 61.7646 16.3366 289° West  Level Estimated
11:19 61.8005 16.1109 289° West  Level Estimated
11:20 61.8361 15.8847 289° West  Level Estimated
11:21 61.8713 15.6580 288° West  Level Estimated
11:22 61.9061 15.4308 288° West  Level Estimated
11:23 61.9405 15.2030 288° West  Level Estimated
11:24 61.9746 14.9748 288° West  Level Estimated
11:25 62.0082 14.7460 288° West  Level Estimated
11:26 62.0415 14.5168 287° West  Level Estimated
11:27 62.0744 14.2870 287° West  Level Estimated
11:28 62.1070 14.0568 287° West  Level Estimated
11:29 62.1391 13.8260 287° West  Level Estimated
11:30 62.1709 13.5948 286° West  Level Estimated
11:31 62.2023 13.3631 286° West  Level Estimated
11:32 62.2332 13.1308 286° West  Level Estimated
11:33 62.2639 12.8982 286° West  Level Estimated
11:34 62.2941 12.6650 286° West  Level Estimated
11:35 62.3239 12.4314 285° West  Level Estimated
11:36 62.3533 12.1974 285° West  Level Estimated
11:37 62.3823 11.9628 285° West  Level Estimated
11:38 62.4110 11.7278 285° West  Level Estimated
11:39 62.4392 11.4924 285° West  Level Estimated
11:40 62.4671 11.2565 284° West  Level Estimated
11:41 62.4945 11.0202 284° West  Level Estimated
11:42 62.5216 10.7835 284° West  Level Estimated
11:43 62.5482 10.5463 284° West  Level Estimated
11:44 62.5745 10.3088 284° West  Level Estimated
11:45 62.6003 10.0708 283° West  Level Estimated
11:46 62.6257 9.8323 283° West  Level Estimated
11:47 62.6508 9.5935 283° West  Level Estimated
11:48 62.6754 9.3543 283° West  Level Estimated
11:49 62.6996 9.1147 283° West  Level Estimated
11:50 62.7234 8.8747 282° West  Level Estimated
11:51 62.7468 8.6343 282° West  Level Estimated
11:52 62.7698 8.3935 282° West  Level Estimated
11:53 62.7924 8.1524 282° West  Level Estimated
11:54 62.8145 7.9109 281° West  Level Estimated
11:55 62.8363 7.6690 281° West  Level Estimated
11:56 62.8576 7.4268 281° West  Level Estimated
11:57 62.8785 7.1842 281° West  Level Estimated
11:58 62.8990 6.9413 281° West  Level Estimated
11:59 62.9191 6.6981 280° West  Level Estimated
12:00 62.9387 6.4545 280° West  Level Estimated
12:01 62.9580 6.2106 280° West  Level Estimated
12:02 62.9768 5.9664 280° West  Level Estimated
12:03 62.9952 5.7218 280° West  Level Estimated
12:04 63.0132 5.4770 279° West  Level Estimated
12:05 63.0307 5.2319 279° West  Level Estimated
12:06 63.0478 4.9864 279° West  Level Estimated
12:07 63.0645 4.7407 279° West  Level Estimated
12:08 63.0808 4.4947 278° West  Level Estimated
12:09 63.0966 4.2485 278° West  Level Estimated
12:10 63.1121 4.0019 278° West  Level Estimated
12:11 63.1271 3.7552 278° West  Level Estimated
12:12 63.1416 3.5081 278° West  Level Estimated
12:13 63.1558 3.2608 277° West  Level Estimated
12:14 63.1694 3.0133 277° West  Level Estimated
12:15 63.1827 2.7656 277° West  Level Estimated
12:16 63.1956 2.5176 277° West  Level Estimated
12:17 63.2080 2.2694 276° West  Level Estimated
12:18 63.2199 2.0210 276° West  Level Estimated
12:19 63.2315 1.7724 276° West  Level Estimated
12:20 63.2426 1.5236 276° West  Level Estimated
12:21 63.2533 1.2746 276° West  Level Estimated
12:22 63.2635 1.0255 275° West  Level Estimated
12:23 63.2733 0.7761 275° West  Level Estimated
12:24 63.2827 0.5266 275° West  Level Estimated
12:25 63.2916 0.2770 275° West  Level Estimated
12:26 63.3001 0.0272 274° West  Level Estimated
12:27 63.3081 -0.2228 274° West  Level Estimated
12:28 63.3157 -0.4729 274° West  Level Estimated
12:29 63.3229 -0.7231 274° West  Level Estimated
12:30 63.3297 -0.9734 274° West  Level Estimated
12:31 63.3360 -1.2239 273° West  Level Estimated
12:32 63.3418 -1.4744 273° West  Level Estimated
12:33 63.3472 -1.7251 273° West  Level Estimated
12:34 63.3522 -1.9758 273° West  Level Estimated
12:35 63.3568 -2.2267 272° West  Level Estimated
12:36 63.3609 -2.4776 272° West  Level Estimated
12:37 63.3645 -2.7286 272° West  Level Estimated
12:38 63.3677 -2.9796 272° West  Level Estimated
12:39 63.3705 -3.2307 272° West  Level Estimated
12:40 63.3729 -3.4818 271° West  Level Estimated
12:41 63.3748 -3.7330 271° West  Level Estimated
12:42 63.3762 -3.9842 271° West  Level Estimated
12:43 63.3772 -4.2354 271° West  Level Estimated
12:44 63.3778 -4.4866 270° West  Level Estimated
12:45 63.3779 -4.7379 270° West  Level Estimated
12:46 63.3776 -4.9891 270° West  Level Estimated
12:47 63.3769 -5.2403 270° West  Level Estimated
12:48 63.3757 -5.4915 270° West  Level Estimated
12:49 63.3741 -5.7427 269° West  Level Estimated
12:50 63.3720 -5.9939 269° West  Level Estimated
12:51 63.3695 -6.2450 269° West  Level Estimated
12:52 63.3665 -6.4961 269° West  Level Estimated
12:53 63.3631 -6.7471 268° West  Level Estimated
12:54 63.3593 -6.9980 268° West  Level Estimated
12:55 63.3550 -7.2489 268° West  Level Estimated
12:56 63.3503 -7.4997 268° West  Level Estimated
12:57 63.3451 -7.7504 267° West  Level Estimated
12:58 63.3395 -8.0010 267° West  Level Estimated
12:59 63.3335 -8.2516 267° West  Level Estimated
13:00 63.3270 -8.5020 267° West  Level Estimated
13:01 63.3201 -8.7523 267° West  Level Estimated
13:02 63.3127 -9.0024 266° West  Level Estimated
13:03 63.3049 -9.2525 266° West  Level Estimated
13:04 63.2967 -9.5024 266° West  Level Estimated
13:05 63.2880 -9.7521 266° West  Level Estimated
13:06 63.2789 -10.0017 265° West  Level Estimated
13:07 63.2694 -10.2511 265° West  Level Estimated
13:08 63.2594 -10.5004 265° West  Level Estimated
13:09 63.2490 -10.7495 265° West  Level Estimated
13:10 63.2381 -10.9984 265° West  Level Estimated
13:11 63.2269 -11.2471 264° West  Level Estimated
13:12 63.2151 -11.4957 264° West  Level Estimated
13:13 63.2030 -11.7440 264° West  Level Estimated
13:14 63.1904 -11.9921 264° West  Level Estimated
13:15 63.1774 -12.2399 263° West  Level Estimated
13:16 63.1640 -12.4876 263° West  Level Estimated
13:17 63.1501 -12.7350 263° West  Level Estimated
13:18 63.1358 -12.9822 263° West  Level Estimated
13:19 63.1210 -13.2291 263° West  Level Estimated
13:20 63.1059 -13.4758 262° West  Level Estimated
13:21 63.0903 -13.7222 262° West  Level Estimated
13:22 63.0743 -13.9684 262° West  Level Estimated
13:23 63.0578 -14.2143 262° West  Level Estimated
13:24 63.0409 -14.4599 261° West  Level Estimated
13:25 63.0236 -14.7052 261° West  Level Estimated
13:26 63.0059 -14.9502 261° West  Level Estimated
13:27 62.9878 -15.1949 261° West  Level Estimated
13:28 62.9692 -15.4393 261° West  Level Estimated
13:29 62.9502 -15.6834 260° West  Level Estimated
13:30 62.9308 -15.9272 260° West  Level Estimated
13:31 62.9110 -16.1706 260° West  Level Estimated
13:32 62.8907 -16.4137 260° West  Level Estimated
13:33 62.8701 -16.6565 260° West  Level Estimated
13:34 62.8490 -16.8989 259° West  Level Estimated
13:35 62.8275 -17.1410 259° West  Level Estimated
13:36 62.8056 -17.3827 259° West  Level Estimated
13:37 62.7832 -17.6241 259° West  Level Estimated
13:38 62.7605 -17.8651 258° West  Level Estimated
13:39 62.7374 -18.1057 258° West  Level Estimated
13:40 62.7138 -18.3459 258° West  Level Estimated
13:41 62.6898 -18.5858 258° West  Level Estimated
13:42 62.6655 -18.8252 258° West  Level Estimated
13:43 62.6407 -19.0643 257° West  Level Estimated
13:44 62.6155 -19.3029 257° West  Level Estimated
13:45 62.5899 -19.5412 257° West  Level Estimated
13:46 62.5639 -19.7790 257° West  Level Estimated
13:47 62.5375 -20.0164 257° West  Level Estimated
13:48 62.5107 -20.2534 256° West  Level Estimated
13:49 62.4834 -20.4900 256° West  Level Estimated
13:50 62.4558 -20.7261 256° West  Level Estimated
13:51 62.4278 -20.9618 256° West  Level Estimated
13:52 62.3994 -21.1971 255° West  Level Estimated
13:53 62.3706 -21.4319 255° West  Level Estimated
13:54 62.3414 -21.6662 255° West  Level Estimated
13:55 62.3118 -21.9001 255° West  Level Estimated
13:56 62.2819 -22.1335 255° West  Level Estimated
13:57 62.2515 -22.3665 254° West  Level Estimated
13:58 62.2207 -22.5989 254° West  Level Estimated
13:59 62.1896 -22.8310 254° West  Level Estimated
14:00 62.1581 -23.0625 254° West  Level Estimated
14:01 62.1261 -23.2935 254° West  Level Estimated
14:02 62.0938 -23.5241 253° West  Level Estimated
14:03 62.0611 -23.7541 253° West  Level Estimated
14:04 62.0281 -23.9837 253° West  Level Estimated
14:05 61.9946 -24.2128 253° West  Level Estimated
14:06 61.9608 -24.4413 253° West  Level Estimated
14:07 61.9266 -24.6694 252° West  Level Estimated
14:08 61.8920 -24.8969 252° West  Level Estimated
14:09 61.8570 -25.1239 252° West  Level Estimated
14:10 61.8217 -25.3504 252° West  Level Estimated
14:11 61.7860 -25.5764 252° West  Level Estimated
14:12 61.7499 -25.8018 251° West  Level Estimated
14:13 61.7135 -26.0268 251° West  Level Estimated
14:14 61.6767 -26.2511 251° West  Level Estimated
14:15 61.6395 -26.4750 251° West  Level Estimated
14:16 61.6020 -26.6983 251° West  Level Estimated
14:17 61.5641 -26.9210 250° West  Level Estimated
14:18 61.5258 -27.1433 250° West  Level Estimated
14:19 61.4872 -27.3649 250° West  Level Estimated
14:20 61.4482 -27.5861 250° West  Level Estimated
14:21 61.4089 -27.8066 250° West  Level Estimated
14:22 61.3692 -28.0266 249° West  Level Estimated
14:23 61.3291 -28.2460 249° West  Level Estimated
14:24 61.2887 -28.4649 249° West  Level Estimated
14:25 61.2480 -28.6832 249° West  Level Estimated
14:26 61.2069 -28.9010 249° West  Level Estimated
14:27 61.1654 -29.1182 248° West  Level Estimated
14:28 61.1236 -29.3348 248° West  Level Estimated
14:29 61.0815 -29.5508 248° West  Level Estimated
14:30 61.0390 -29.7663 248° West  Level Estimated
14:31 60.9962 -29.9811 248° West  Level Estimated
14:32 60.9530 -30.1954 248° West  Level Estimated
14:33 60.9095 -30.4091 247° West  Level Estimated
14:34 60.8656 -30.6222 247° West  Level Estimated
14:35 60.8214 -30.8348 247° West  Level Estimated
14:36 60.7769 -31.0467 247° West  Level Estimated
14:37 60.7321 -31.2581 247° West  Level Estimated
14:38 60.6869 -31.4689 246° West  Level Estimated
14:39 60.6414 -31.6790 246° West  Level Estimated
14:40 60.5955 -31.8886 246° West  Level Estimated
14:41 60.5494 -32.0976 246° West  Level Estimated
14:42 60.5029 -32.3060 246° West  Level Estimated
14:43 60.4560 -32.5138 246° West  Level Estimated
14:44 60.4089 -32.7210 245° Southwest  Level Estimated
14:45 60.3614 -32.9275 245° Southwest  Level Estimated
14:46 60.3137 -33.1335 245° Southwest  Level Estimated
14:47 60.2656 -33.3389 245° Southwest  Level Estimated
14:48 60.2171 -33.5437 245° Southwest  Level Estimated
14:49 60.1684 -33.7478 244° Southwest  Level Estimated
14:50 60.1194 -33.9514 244° Southwest  Level Estimated
14:51 60.0700 -34.1543 244° Southwest  Level Estimated
14:52 60.0204 -34.3567 244° Southwest  Level Estimated
14:53 59.9704 -34.5584 244° Southwest  Level Estimated
14:54 59.9201 -34.7595 244° Southwest  Level Estimated
14:55 59.8695 -34.9601 243° Southwest  Level Estimated
14:56 59.8186 -35.1600 243° Southwest  Level Estimated
14:57 59.7674 -35.3593 243° Southwest  Level Estimated
14:58 59.7160 -35.5579 243° Southwest  Level Estimated
14:59 59.6642 -35.7560 243° Southwest  Level Estimated
15:00 59.6121 -35.9535 243° Southwest  Level Estimated
15:01 59.5597 -36.1503 242° Southwest  Level Estimated
15:02 59.5070 -36.3465 242° Southwest  Level Estimated
15:03 59.4540 -36.5422 242° Southwest  Level Estimated
15:04 59.4008 -36.7372 242° Southwest  Level Estimated
15:05 59.3472 -36.9315 242° Southwest  Level Estimated
15:06 59.2934 -37.1253 242° Southwest  Level Estimated
15:07 59.2393 -37.3185 241° Southwest  Level Estimated
15:08 59.1818 -37.5216 241° Southwest  Level Estimated
15:09 59.1241 -37.7241 241° Southwest  Level Estimated
15:10 59.0661 -37.9258 241° Southwest  Level Estimated
15:11 59.0077 -38.1269 241° Southwest  Level Estimated
15:12 58.9490 -38.3274 240° Southwest  Level Estimated
15:13 58.8900 -38.5271 240° Southwest  Level Estimated
15:14 58.8307 -38.7261 240° Southwest  Level Estimated
15:15 58.7712 -38.9245 240° Southwest  Level Estimated
15:16 58.7113 -39.1222 240° Southwest  Level Estimated
15:17 58.6511 -39.3191 240° Southwest  Level Estimated
15:18 58.5906 -39.5155 239° Southwest  Level Estimated
15:19 58.5298 -39.7111 239° Southwest  Level Estimated
15:20 58.4687 -39.9061 239° Southwest  Level Estimated
15:21 58.4073 -40.1003 239° Southwest  Level Estimated
15:22 58.3456 -40.2939 239° Southwest  Level Estimated
15:23 58.2836 -40.4869 239° Southwest  Level Estimated
15:24 58.2214 -40.6791 238° Southwest  Level Estimated
15:25 58.1588 -40.8707 238° Southwest  Level Estimated
15:26 58.0960 -41.0616 238° Southwest  Level Estimated
15:27 58.0329 -41.2518 238° Southwest  Level Estimated
15:28 57.9695 -41.4414 238° Southwest  Level Estimated
15:29 57.9058 -41.6303 238° Southwest  Level Estimated
15:30 57.8418 -41.8185 237° Southwest  Level Estimated
15:31 57.7776 -42.0061 237° Southwest  Level Estimated
15:32 57.7131 -42.1929 237° Southwest  Level Estimated
15:33 57.6483 -42.3792 237° Southwest  Level Estimated
15:34 57.5832 -42.5647 237° Southwest  Level Estimated
15:35 57.5179 -42.7496 237° Southwest  Level Estimated
15:36 57.4523 -42.9338 237° Southwest  Level Estimated
15:37 57.3864 -43.1174 236° Southwest  Level Estimated
15:38 57.3203 -43.3003 236° Southwest  Level Estimated
15:39 57.2539 -43.4825 236° Southwest  Level Estimated
15:40 57.1872 -43.6641 236° Southwest  Level Estimated
15:41 57.1203 -43.8450 236° Southwest  Level Estimated
15:42 57.0531 -44.0253 236° Southwest  Level Estimated
15:43 56.9857 -44.2049 235° Southwest  Level Estimated
15:44 56.9180 -44.3839 235° Southwest  Level Estimated
15:45 56.8500 -44.5623 235° Southwest  Level Estimated
15:46 56.7818 -44.7399 235° Southwest  Level Estimated
15:47 56.7133 -44.9170 235° Southwest  Level Estimated
15:48 56.6446 -45.0934 235° Southwest  Level Estimated
15:49 56.5757 -45.2691 235° Southwest  Level Estimated
15:50 56.5065 -45.4442 234° Southwest  Level Estimated
15:51 56.4370 -45.6187 234° Southwest  Level Estimated
15:52 56.3673 -45.7925 234° Southwest  Level Estimated
15:53 56.2974 -45.9657 234° Southwest  Level Estimated
15:54 56.2272 -46.1383 234° Southwest  Level Estimated
15:55 56.1568 -46.3102 234° Southwest  Level Estimated
15:56 56.0862 -46.4815 234° Southwest  Level Estimated
15:57 56.0153 -46.6522 233° Southwest  Level Estimated
15:58 55.9441 -46.8222 233° Southwest  Level Estimated
15:59 55.8728 -46.9916 233° Southwest  Level Estimated
16:00 55.8012 -47.1604 233° Southwest  Level Estimated
16:00 62.6500 -58.1833 232° Southwest 420 483 36,000  Level Gander Center
16:01 55.7294 -47.3286 233° Southwest  Level Estimated
16:01 62.6000 -58.3333 234° Southwest 430 495 36,000  Level Gander Center
16:02 55.6573 -47.4961 233° Southwest  Level Estimated
16:02 62.5333 -58.5500 236° Southwest 430 495 36,000  Level Gander Center
16:03 55.5850 -47.6631 233° Southwest  Level Estimated
16:03 62.4333 -58.7833 227° Southwest 430 495 36,000  Level Gander Center
16:04 55.5125 -47.8294 232° Southwest  Level Estimated
16:04 62.3833 -58.9500 237° Southwest 430 495 36,000  Level Gander Center
16:05 55.4398 -47.9951 232° Southwest  Level Estimated
16:05 62.3167 -59.1500 234° Southwest 430 495 36,000  Level Gander Center
16:06 55.3669 -48.1602 232° Southwest  Level Estimated
16:06 62.2333 -59.3667 231° Southwest 430 495 36,000  Level Gander Center
16:07 62.1667 -59.5500 232° Southwest 420 483 36,000  Level Gander Center
16:08 62.0833 -59.7000 220° Southwest 420 483 36,000  Level Montreal Center
16:09 62.0000 -59.8833 226° Southwest 420 483 36,000  Level Montreal Center
16:10 61.9333 -60.1000 237° Southwest 420 483 36,000  Level Montreal Center
16:11 61.8500 -60.3000 229° Southwest 420 483 36,000  Level Montreal Center
16:12 61.7833 -60.4667 230° Southwest 420 483 36,000  Level Montreal Center
16:13 61.7000 -60.6500 226° Southwest 420 483 36,000  Level Montreal Center
16:14 61.6500 -60.8667 244° Southwest 420 483 36,000  Level Montreal Center
16:15 61.5667 -61.0500 226° Southwest 420 483 36,000  Level Montreal Center
16:16 61.4833 -61.2333 226° Southwest 420 483 36,000  Level Montreal Center
16:17 61.4167 -61.4000 230° Southwest 420 483 36,000  Level Montreal Center
16:18 61.3333 -61.6167 231° Southwest 420 483 36,000  Level Montreal Center
16:19 61.2667 -61.7833 230° Southwest 420 483 36,000  Level Montreal Center
16:20 61.1833 -62.0000 231° Southwest 420 483 36,000  Level Montreal Center
16:21 61.1167 -62.1333 224° Southwest 420 483 36,000  Level Montreal Center
16:22 61.0333 -62.3500 232° Southwest 420 483 36,000  Level Montreal Center
16:23 60.9500 -62.5333 227° Southwest 420 483 36,000  Level Montreal Center
16:24 60.8833 -62.7000 231° Southwest 420 483 36,000  Level Montreal Center
16:25 60.8000 -62.8667 224° Southwest 400 460 36,000  Level Montreal Center
16:27 60.6500 -63.2333 230° Southwest 420 483 36,000  Level Montreal Center
16:28 60.5667 -63.4000 225° Southwest 420 483 36,000  Level Montreal Center
16:29 60.5000 -63.5667 231° Southwest 420 483 36,000  Level Montreal Center
16:30 60.4167 -63.7500 227° Southwest 420 483 36,000  Level Montreal Center
16:31 60.3500 -63.9333 234° Southwest 420 483 36,000  Level Montreal Center
16:32 60.2500 -64.1000 220° Southwest 420 483 36,000  Level Montreal Center
16:33 60.1667 -64.2667 225° Southwest 420 483 36,000  Level Montreal Center
16:34 60.1000 -64.4667 236° Southwest 420 483 36,000  Level Montreal Center
16:35 60.0167 -64.6333 225° Southwest 420 483 36,000  Level Montreal Center
16:36 59.9500 -64.8000 231° Southwest 410 472 36,000  Level Montreal Center
16:37 59.8500 -64.9500 217° Southwest 420 483 36,000  Level Montreal Center
16:39 59.7418 -65.2150 231° Southwest  Level FlightAware Approximate
16:39 59.7000 -65.3667 231° Southwest 420 483 36,000  Level Gander Center
16:40 59.6167 -65.4667 211° Southwest 420 483 36,000  Level Montreal Center
16:41 59.5333 -65.6333 225° Southwest 420 483 36,000  Level Montreal Center
16:42 59.4667 -65.7833 229° Southwest 420 483 36,000  Level Montreal Center
16:43 59.3667 -65.9500 220° Southwest 420 483 36,000  Level Montreal Center
16:44 59.3000 -66.1333 235° Southwest 420 483 36,000  Level Montreal Center
16:45 59.2167 -66.2833 223° Southwest 420 483 36,000  Level Montreal Center
16:46 59.1167 -66.4500 221° Southwest 420 483 36,000  Level Montreal Center
16:47 59.0500 -66.6333 235° Southwest 420 483 36,000  Level Montreal Center
16:48 58.9667 -66.7833 223° Southwest 420 483 36,000  Level Montreal Center
16:49 58.8833 -66.9333 223° Southwest 420 483 36,000  Level Montreal Center
16:50 58.8000 -67.0833 223° Southwest 420 483 36,000  Level Montreal Center
16:51 58.7167 -67.2667 229° Southwest 420 483 36,000  Level Montreal Center
16:52 58.6333 -67.4167 223° Southwest 420 483 36,000  Level Montreal Center
16:53 58.5333 -67.5667 218° Southwest 420 483 36,000  Level Montreal Center
16:54 58.4667 -67.7167 230° Southwest 420 483 36,000  Level Montreal Center
16:55 58.3667 -67.9000 224° Southwest 420 483 36,000  Level Montreal Center
16:56 58.3000 -68.0500 230° Southwest 420 483 36,000  Level Montreal Center
16:57 58.2000 -68.2000 218° Southwest 430 495 36,000  Level Montreal Center
16:59 58.0167 -68.5667 227° Southwest 410 472 36,000  Level Gander Center
17:00 57.9167 -68.7000 215° Southwest 430 495 36,000  Level Gander Center
17:01 57.8167 -68.8333 215° Southwest 430 495 36,000  Level Gander Center
17:02 57.7167 -68.9667 215° Southwest 430 495 36,000  Level Gander Center
17:03 57.6167 -69.1167 219° Southwest 430 495 36,000  Level Gander Center
17:04 57.5333 -69.2167 213° Southwest 430 495 36,000  Level Gander Center
17:05 57.4167 -69.3500 212° Southwest 430 495 36,000  Level Gander Center
17:06 57.3333 -69.4833 221° Southwest 430 495 36,000  Level Gander Center
17:07 57.2333 -69.6167 216° Southwest 430 495 36,000  Level Gander Center
17:08 57.1500 -69.7500 221° Southwest 430 495 36,000  Level Gander Center
17:09 57.0333 -69.8833 212° Southwest 430 495 36,000  Level Gander Center
17:10 56.9500 -69.9833 213° Southwest 430 495 36,000  Level Gander Center
17:11 56.8500 -70.1167 216° Southwest 430 495 36,000  Level Gander Center
17:12 56.7333 -70.2500 212° Southwest 430 495 36,000  Level Gander Center
17:13 56.6500 -70.3833 221° Southwest 430 495 36,000  Level Gander Center
17:14 56.5333 -70.5000 209° Southwest 430 495 36,000  Level Gander Center
17:15 56.4500 -70.6000 214° Southwest 430 495 36,000  Level Gander Center
17:16 56.3333 -70.7333 212° Southwest 440 506 36,000  Level Gander Center
17:17 56.2500 -70.8500 218° Southwest 440 506 36,000  Level Gander Center
17:18 56.1500 -70.9833 217° Southwest 430 495 36,000  Level Gander Center
17:19 56.0333 -71.1000 209° Southwest 430 495 36,000  Level Gander Center
17:20 55.9500 -71.2333 222° Southwest 440 506 36,000  Level Gander Center
17:21 55.8333 -71.3333 206° Southwest 430 495 36,000  Level Gander Center
17:22 55.7500 -71.4500 218° Southwest 440 506 36,000  Level Gander Center
17:23 55.6500 -71.5833 217° Southwest 430 495 36,000  Level Gander Center
17:24 55.5333 -71.7000 210° Southwest 430 495 36,000  Level Gander Center
17:34 54.5167 -72.8667 208° Southwest 440 506 36,000  Level Gander Center
17:35 54.7874 -72.4083 208° Southwest  Level FlightAware Approximate
17:35 54.4167 -72.9833 214° Southwest 440 506 36,000  Level Gander Center
17:36 54.7141 -72.4764 208° Southwest  Level FlightAware Approximate
17:36 54.3167 -73.1000 214° Southwest 440 506 36,000  Level Gander Center
17:37 54.6407 -72.5442 208° Southwest  Level FlightAware Approximate
17:37 54.2167 -73.1833 206° Southwest 440 506 36,000  Level Gander Center
17:38 54.5673 -72.6117 208° Southwest  Level FlightAware Approximate
17:38 54.1167 -73.3000 214° Southwest 440 506 36,000  Level Gander Center
17:39 54.4938 -72.6790 208° Southwest  Level FlightAware Approximate
17:39 54.0167 -73.4167 214° Southwest 440 506 36,000  Level Gander Center
17:40 54.3915 -72.7723 208° Southwest  Level FlightAware Approximate
17:40 53.9000 -73.5167 207° Southwest 440 506 36,000  Level Gander Center
17:41 53.8000 -73.6333 215° Southwest 440 506 36,000  Level Gander Center
17:42 53.7000 -73.7500 215° Southwest 440 506 36,000  Level Gander Center
17:43 53.5833 -73.8500 207° Southwest 450 518 36,000  Level Gander Center
17:44 53.4667 -73.9333 203° Southwest 450 518 36,000  Level Gander Center
17:45 53.3667 -74.0167 206° Southwest 450 518 36,000  Level Gander Center
17:46 53.2500 -74.1333 211° Southwest 450 518 36,000  Level Gander Center
17:47 53.1333 -74.2000 199° South 450 518 36,000  Level Gander Center
17:48 53.0333 -74.3167 215° Southwest 450 518 36,000  Level Gander Center
17:49 52.9167 -74.3833 199° South 450 518 36,000  Level Gander Center
17:50 52.8000 -74.5000 211° Southwest 450 518 36,000  Level Gander Center
17:51 52.7000 -74.5833 207° Southwest 450 518 36,000  Level Gander Center
17:52 52.5833 -74.6500 199° South 450 518 36,000  Level Gander Center
17:53 52.4667 -74.7500 208° Southwest 450 518 36,000  Level Gander Center
17:54 52.3500 -74.8333 204° Southwest 450 518 36,000  Level Gander Center
17:55 52.2500 -74.9333 211° Southwest 450 518 36,000  Level Gander Center
17:56 52.1333 -75.0167 204° Southwest 450 518 36,000  Level Gander Center
17:57 52.0167 -75.1167 208° Southwest 450 518 36,000  Level Gander Center
17:58 51.9167 -75.1833 202° Southwest 450 518 36,000  Level Gander Center
17:59 51.8000 -75.3000 212° Southwest 450 518 36,000  Level Gander Center
18:07 50.9000 -75.9333 206° Southwest 440 506 36,000  Level Montreal Center
18:08 51.1221 -75.5281 206° Southwest  Level FlightAware Approximate
18:08 50.7833 -76.0167 204° Southwest 440 506 36,000  Level Montreal Center
18:09 51.0474 -75.5869 206° Southwest  Level FlightAware Approximate
18:09 50.6667 -76.1000 204° Southwest 440 506 36,000  Level Montreal Center
18:10 50.9726 -75.6455 206° Southwest  Level FlightAware Approximate
18:10 50.5500 -76.1833 204° Southwest 440 506 36,000  Level Montreal Center
18:11 50.8979 -75.7039 206° Southwest  Level FlightAware Approximate
18:11 50.4500 -76.2500 203° Southwest 440 506 36,000  Level Montreal Center
18:12 50.8231 -75.7621 206° Southwest  Level FlightAware Approximate
18:12 50.3333 -76.3333 205° Southwest 440 506 36,000  Level Montreal Center
18:13 50.7188 -75.8428 206° Southwest  Level FlightAware Approximate
18:13 50.2167 -76.4167 205° Southwest 440 506 36,000  Level Montreal Center
18:14 50.1000 -76.5167 209° Southwest 440 506 36,000  Level Montreal Center
18:15 49.9833 -76.6000 205° Southwest 440 506 36,000  Level Montreal Center
18:16 49.8833 -76.6667 203° Southwest 440 506 36,000  Level Montreal Center
18:17 49.7667 -76.7500 205° Southwest 450 518 36,000  Level Montreal Center
18:18 49.6500 -76.8167 200° South 450 518 36,000  Level Montreal Center
18:19 49.5333 -76.9000 205° Southwest 430 495 36,000  Level Montreal Center
18:20 49.4167 -76.9667 200° South 460 529 36,000  Level Montreal Center
18:21 49.3000 -77.0500 205° Southwest 460 529 36,000  Level Montreal Center
18:22 49.2000 -77.1500 213° Southwest 440 506 36,000  Level Montreal Center
18:23 49.0833 -77.2167 201° Southwest 450 518 36,000  Level Montreal Center
18:24 48.9667 -77.3000 205° Southwest 450 518 36,000  Level Montreal Center
18:25 48.8333 -77.3667 198° South 440 506 36,000  Level Montreal Center
18:26 48.7333 -77.4500 209° Southwest 440 506 36,000  Level Montreal Center
18:27 48.6333 -77.5167 204° Southwest 450 518 36,000  Level Montreal Center
18:28 48.5000 -77.5833 198° South 440 506 36,000  Level Montreal Center
18:29 48.4000 -77.6833 214° Southwest 440 506 36,000  Level Montreal Center
18:30 48.2833 -77.7667 205° Southwest 440 506 36,000  Level Montreal Center
18:31 48.1833 -77.8333 204° Southwest 440 506 36,000  Level Montreal Center
18:32 48.0667 -77.9000 201° Southwest 440 506 36,000  Level Montreal Center
18:33 47.9333 -77.9500 194° South 440 506 36,000  Level Montreal Center
18:34 47.8333 -78.0167 204° Southwest 440 506 36,000  Level Montreal Center
18:35 47.7000 -78.0833 199° South 440 506 36,000  Level Montreal Center
18:36 47.6000 -78.1667 209° Southwest 440 506 36,000  Level Montreal Center
18:37 47.4833 -78.2333 201° Southwest 440 506 36,000  Level Montreal Center
18:38 47.3667 -78.3000 201° Southwest 440 506 36,000  Level Montreal Center
18:39 47.2500 -78.3667 201° Southwest 440 506 36,000  Level Montreal Center
18:40 47.1500 -78.4167 199° South 440 506 36,000  Level Montreal Center
18:41 47.0167 -78.4833 199° South 440 506 36,000  Level Montreal Center
18:42 46.9000 -78.5500 201° Southwest 440 506 36,000  Level Montreal Center
18:43 46.8500 -78.5667 193° South 440 506 36,000  Level Toronto Center
18:44 46.7167 -78.6333 199° South 440 506 36,000  Level Toronto Center
18:45 46.6167 -78.6833 199° South 430 495 36,000  Level Toronto Center
18:46 46.5000 -78.7667 206° Southwest 430 495 36,000  Level Toronto Center
18:47 46.3833 -78.8167 196° South 430 495 36,000  Level Toronto Center
18:48 46.2833 -78.8667 199° South 430 495 36,000  Level Toronto Center
18:49 46.1667 -78.9333 202° Southwest 430 495 36,000  Level Toronto Center
18:50 46.0500 -78.9833 197° South 430 495 36,000  Level Toronto Center
18:52 45.8333 -79.1000 201° Southwest 430 495 36,000  Level Toronto Center
18:53 45.7167 -79.1833 207° Southwest 430 495 36,000  Level Toronto Center
18:54 45.6000 -79.2333 197° South 430 495 36,000  Level Toronto Center
18:55 45.4833 -79.3000 202° Southwest 430 495 36,000  Level Toronto Center
18:56 45.3667 -79.3500 197° South 430 495 36,000  Level Toronto Center
18:57 45.2667 -79.4167 205° Southwest 430 495 36,000  Level Toronto Center
19:03 44.6274 -79.7701 205° Southwest 430 495 36,000  Level FlightAware ADS-B
19:04 44.4589 -79.9039 210° Southwest 413 475 36,000  Level FlightAware ADS-B
19:05 44.3647 -79.9891 213° Southwest 413 475 36,000  Level FlightAware ADS-B
19:06 44.3035 -80.0442 213° Southwest 414 476 36,000  Level FlightAware ADS-B
19:07 44.2045 -80.1326 213° Southwest 415 478 36,000  Level FlightAware ADS-B
19:09 44.0258 -80.2915 217° Southwest 415 478 36,000  Level FlightAware ADS-B
19:09 43.9551 -80.3540 212° Southwest 415 478 36,000  Level FlightAware ADS-B
19:10 43.8961 -80.4059 212° Southwest 414 476 36,000  Level FlightAware ADS-B
19:11 43.8268 -80.4670 212° Southwest 413 475 36,000  Level FlightAware ADS-B
19:11 43.7630 -80.5230 212° Southwest 412 474 36,000  Level FlightAware ADS-B
19:12 43.7028 -80.5756 212° Southwest 411 473 36,000  Level FlightAware ADS-B
19:13 43.6342 -80.6355 212° Southwest 410 472 36,000  Level FlightAware ADS-B
19:14 43.5667 -80.6941 212° Southwest 410 472 36,000  Level FlightAware ADS-B
19:14 43.5034 -80.7491 212° Southwest 410 472 36,000  Level FlightAware ADS-B
19:15 43.4332 -80.8098 212° Southwest 410 472 36,000  Level FlightAware ADS-B
19:16 43.3723 -80.8625 212° Southwest 409 471 36,000  Level FlightAware ADS-B
19:16 43.3049 -80.9206 212° Southwest 408 470 36,000  Level FlightAware ADS-B
19:17 43.2391 -80.9772 212° Southwest 406 467 36,000  Level FlightAware ADS-B
19:18 43.1815 -81.0265 212° Southwest 404 465 36,000  Level FlightAware ADS-B
19:18 43.1279 -81.0724 212° Southwest 403 464 36,000  Level FlightAware ADS-B
19:19 43.0489 -81.1392 212° Southwest 404 465 36,000  Level FlightAware ADS-B
19:20 42.9911 -81.1771 206° Southwest 412 474 36,000  Level FlightAware ADS-B
19:20 42.9107 -81.2274 205° Southwest 412 474 36,000  Level FlightAware ADS-B
19:21 42.8420 -81.2702 205° Southwest 411 473 36,000  Level FlightAware ADS-B
19:22 42.7771 -81.3103 204° Southwest 410 472 36,000  Level FlightAware ADS-B
19:22 42.7217 -81.3442 204° Southwest 410 472 36,000  Level FlightAware ADS-B
19:23 42.6521 -81.3868 204° Southwest 410 472 36,000  Level FlightAware ADS-B
19:24 42.5519 -81.4480 204° Southwest 415 478 36,000  Level FlightAware ADS-B
19:25 42.4303 -81.5222 204° Southwest 419 482 36,000  Level FlightAware ADS-B
19:27 42.2568 -81.6272 204° Southwest 421 484 36,000  Level FlightAware ADS-B
19:28 42.1108 -81.7144 204° Southwest 413 475 36,000  Level Cleveland Center
19:29 42.0067 -81.7775 204° Southwest 409 471 36,000  Level Cleveland Center
19:30 41.9042 -81.8389 204° Southwest 403 464 36,000  Level Cleveland Center
19:31 41.8033 -81.8983 204° Southwest 397 457 36,000  Level Cleveland Center
19:32 41.7022 -81.9586 204° Southwest 396 456 36,000  Level Cleveland Center
19:33 41.6008 -82.0189 204° Southwest 397 457 36,000  Level Cleveland Center
19:34 41.4731 -82.0625 194° South 422 486 36,000  Level Cleveland Center
19:35 41.3556 -82.0561 178° South 441 507 36,000  Level Cleveland Center
19:36 41.2342 -82.0522 179° South 439 505 36,000  Level Cleveland Center
19:37 41.1064 -82.0497 179° South 440 506 36,000  Level Cleveland Center
19:38 40.9836 -82.0469 179° South 440 506 36,000  Level Cleveland Center
19:40 40.7703 -82.0400 179° South 435 501 36,000  Level FlightAware ADS-B
19:40 40.7189 -82.0333 179° South 436 502 36,000  Level Cleveland Center
19:41 40.5967 -82.0183 175° South 438 504 36,000  Level Cleveland Center
19:42 40.5339 -82.0119 176° South 440 506 36,000  Level Indianapolis Center
19:48 39.8244 -81.9698 176° South 421 484 36,000  Level FlightAware ADS-B (KPMH)
19:49 39.6376 -81.9669 179° South 421 484 36,000  Level FlightAware ADS-B (KPMH)
19:51 39.4355 -81.9633 179° South 420 483 36,000  Level FlightAware ADS-B (KPMH)
19:52 39.3163 -81.9614 179° South 422 486 36,000  Level FlightAware ADS-B (KPMH)
19:53 39.2636 -81.9586 179° South 421 484 36,000  Level Cleveland Center
19:54 39.1483 -81.9789 188° South 417 480 36,000  Level Cleveland Center
19:55 38.9817 -82.0181 190° South 414 476 36,000  Level Indianapolis Center
19:56 38.8683 -82.0444 190° South 416 479 36,000  Level Indianapolis Center
20:01 38.2819 -82.1792 216° Southwest 407 468 36,000  Level Indianapolis Center
20:02 38.1697 -82.2036 190° South 409 471 36,000  Level Indianapolis Center
20:03 38.0353 -82.2311 189° South 406 467 36,000  Level Indianapolis Center
20:04 37.9225 -82.2539 189° South 410 472 36,000  Level Indianapolis Center
20:05 38.1843 -82.0006 176° South  Level FlightAware Approximate
20:06 38.1014 -81.9940 176° South  Level FlightAware Approximate
20:06 37.8058 -82.2586 182° South 431 496 36,000  Level Indianapolis Center
20:07 38.0077 -82.0811 216° Southwest  Level FlightAware Approximate
20:07 37.6869 -82.2522 178° South 427 491 36,000  Level Indianapolis Center
20:08 37.5697 -82.2472 178° South 421 484 36,000  Level Indianapolis Center
20:09 37.4528 -82.2439 179° South 418 481 36,000  Level Indianapolis Center
20:10 37.3356 -82.2381 178° South 419 482 36,000  Level Indianapolis Center
20:11 37.1981 -82.2314 178° South 421 484 36,000  Level Indianapolis Center
20:12 37.0792 -82.2253 178° South 423 487 36,000  Level Indianapolis Center
20:13 36.9617 -82.2194 178° South 420 483 36,000  Level Indianapolis Center
20:14 36.8461 -82.2136 178° South 414 476 36,000  Level Indianapolis Center
20:15 36.7319 -82.2083 178° South 410 472 36,000  Level Indianapolis Center
20:16 36.6161 -82.2036 178° South 411 473 36,000  Level Indianapolis Center
20:17 36.5178 -82.1994 178° South 417 480 36,000  Level Atlanta Center
20:18 36.4031 -82.1919 177° South 417 480 36,000  Level Atlanta Center
20:19 36.2906 -82.1892 179° South 417 480 36,000  Level Atlanta Center
20:20 36.1778 -82.1842 178° South 417 480 36,000  Level Atlanta Center
20:21 36.0692 -82.1789 178° South 407 468 36,000  Level Atlanta Center
20:22 35.9564 -82.1739 178° South 407 468 36,000  Level Atlanta Center
20:23 35.8458 -82.1686 178° South 402 463 36,000  Level Atlanta Center
20:24 35.7311 -82.1661 179° South 408 470 36,000  Level Atlanta Center
20:25 35.6206 -82.1611 178° South 408 470 36,000  Level Atlanta Center
20:26 35.5078 -82.1561 178° South 408 470 36,000  Level Atlanta Center
20:27 35.3969 -82.1508 178° South 408 470 36,000  Level Atlanta Center
20:28 35.2969 -82.1456 178° South 403 464 36,000  Level Atlanta Center
20:29 35.1861 -82.1403 178° South 403 464 36,000  Level Atlanta Center
20:30 35.0733 -82.1381 179° South 403 464 36,000  Level Atlanta Center
20:31 34.9628 -82.1328 178° South 403 464 36,000  Level Atlanta Center
20:32 34.8500 -82.1253 177° South 403 464 36,000  Level Atlanta Center
20:33 34.7392 -82.1178 177° South 403 464 36,000  Level Atlanta Center
20:34 34.6244 -82.1103 177° South 408 470 36,000  Level Atlanta Center
20:35 34.5136 -82.1078 179° South 408 470 36,000  Level Atlanta Center
20:36 34.4031 -82.1003 177° South 408 470 36,000  Level Atlanta Center
20:37 34.2903 -82.0953 178° South 408 470 36,000  Level Atlanta Center
20:38 34.1794 -82.0903 178° South 408 470 36,000  Level Atlanta Center
20:39 34.0647 -82.0853 178° South 408 470 36,000  Level Atlanta Center
20:40 33.9519 -82.0781 177° South 408 470 36,000  Level Atlanta Center
20:41 33.8369 -82.0731 178° South 408 470 36,000  Level Atlanta Center
20:42 33.7219 -82.0683 178° South 408 470 36,000  Level Atlanta Center
20:43 33.6050 -82.0633 178° South 408 470 36,000  Level Atlanta Center
20:44 33.4903 -82.0611 179° South 414 476 36,000  Level Atlanta Center
20:45 33.3753 -82.0561 178° South 414 476 36,000  Level Atlanta Center
20:46 33.2583 -82.0514 178° South 419 482 36,000  Level Atlanta Center
20:48 33.0092 -82.0403 178° South 431 496 36,000  Level Jacksonville Center
20:49 32.8922 -82.0367 179° South 431 496 36,000  Level Jacksonville Center
20:50 32.7775 -82.0303 177° South 425 489 36,000  Level Jacksonville Center
20:51 32.6603 -82.0239 177° South 425 489 36,000  Level Jacksonville Center
20:52 32.5456 -82.0178 177° South 420 483 36,000  Level Jacksonville Center
20:53 32.4308 -82.0114 177° South 420 483 36,000  Level Jacksonville Center
20:54 32.3158 -82.0125 180° South 415 478 36,000  Level Jacksonville Center
20:55 32.1947 -81.9939 173° South 429 494 36,000  Level Jacksonville Center
20:56 32.0881 -81.9778 173° South 435 501 36,000  Level Jacksonville Center
21:00 31.5906 -81.9122 183° South 445 512 36,000  Level Jacksonville Center
21:01 31.4861 -81.9011 175° South 440 506 36,000  Level Jacksonville Center
21:02 31.3586 -81.8831 173° South 428 493 36,000  Level Jacksonville Center
21:03 31.2522 -81.8744 176° South 428 493 36,000  Level Jacksonville Center
21:04 31.1372 -81.8561 172° South 428 493 36,000  Level Jacksonville Center
21:05 31.1332 -81.9566 183° South  Level FlightAware Approximate
21:05 31.0200 -81.8258 168° South 428 493 36,000  Level Jacksonville Center
21:11 30.2893 -81.5173 168° South 452 520 36,000  Level FlightAware ADS-B (KMCO)
21:12 30.1878 -81.4772 188° South 450 518 36,000  Level Jacksonville Center
21:13 30.0497 -81.4182 160° South 449 517 36,000  Level FlightAware ADS-B (KMCO)
21:13 29.9712 -81.3859 160° South 449 517 36,000  Level FlightAware ADS-B (KMCO)
21:14 29.8918 -81.3533 160° South 448 516 36,000  Level FlightAware ADS-B (KMCO)
21:15 29.8116 -81.3203 160° South 449 517 36,000  Level FlightAware ADS-B (KMCO)
21:17 29.6716 -81.3441 188° South  Level Estimated
21:17 29.5106 -81.1972 188° South 449 517 36,000  Level FlightAware ADS-B (KMCO)
21:18 29.4340 -81.1659 160° South 450 518 36,000  Level FlightAware ADS-B (KMCO)
21:19 29.3618 -81.1377 161° South 443 510 36,000  Level FlightAware ADS-B (KMCO)
21:19 29.2688 -81.1174 169° South 431 496 36,000  Level FlightAware ADS-B (KMCO)
21:20 29.2294 -81.1140 176° South 431 496 36,000  Level FlightAware ADS-B (KSFB)
21:20 29.1482 -81.1131 179° South 426 490 36,000  Level FlightAware ADS-B (KSFB)
21:21 29.0661 -81.1120 179° South 425 489 36,000  Level FlightAware ADS-B (KMCO)
21:22 28.9856 -81.1115 180° South 423 487 36,000  Level FlightAware ADS-B (KMCO)
21:22 28.9079 -81.1111 180° South 419 482 36,000  Level FlightAware ADS-B (KMCO)
21:23 28.8307 -81.1108 180° South 417 480 36,000  Level FlightAware ADS-B (KSFB)
21:24 28.7734 -81.1150 184° South 405 466 36,000  Level FlightAware ADS-B (KSFB)
21:24 28.7412 -81.1227 192° South 406 467 36,000  Level FlightAware ADS-B
21:24 28.6789 -81.1384 192° South 407 468 36,000  Level FlightAware ADS-B (KMCO)
21:25 28.6076 -81.1567 193° South 408 470 36,000  Level FlightAware ADS-B (KSFB)
21:26 28.5359 -81.1749 193° South 409 471 36,000  Level FlightAware ADS-B (KSFB)
21:26 28.4625 -81.1938 193° South 410 472 36,000  Level FlightAware ADS-B (KSFB)
21:27 28.3823 -81.2147 193° South 411 473 36,000  Level FlightAware ADS-B (KMCO)
21:28 28.3266 -81.2292 193° South 410 472 36,000  Level FlightAware ADS-B (KSFB)
21:28 28.2327 -81.2535 193° South 416 479 36,000  Level FlightAware ADS-B (KMCO)
21:29 28.1943 -81.2544 181° South 429 494 36,000  Level FlightAware ADS-B (KMCO)
21:29 28.1277 -81.2508 177° South 429 494 36,000  Level FlightAware ADS-B (KSFB)
21:30 28.0545 -81.2473 178° South 429 494 36,000  Level FlightAware ADS-B
21:31 27.9929 -81.2444 178° South 429 494 36,000  Level FlightAware ADS-B (KMCO)
21:31 27.9146 -81.2407 178° South 430 495 36,000  Level FlightAware ADS-B (KMCO)
21:32 27.8350 -81.2370 178° South 431 496 36,000  Level FlightAware ADS-B (KMCO)
21:32 27.7584 -81.2334 178° South 430 495 36,000  Level FlightAware ADS-B (KMCO)
21:33 27.6844 -81.2299 178° South 430 495 36,000  Level FlightAware ADS-B (KMCO)
21:34 27.5928 -81.2257 178° South 432 497 36,000  Level FlightAware ADS-B (KMCO)
21:35 27.5132 -81.2220 178° South 434 499 36,000  Level FlightAware ADS-B (KMCO)
21:35 27.4333 -81.2183 178° South 435 501 36,000  Level FlightAware ADS-B (KMCO)
21:36 27.3493 -81.2144 178° South 436 502 36,000  Level FlightAware ADS-B (KMCO)
21:37 27.2822 -81.2113 178° South 435 501 36,000  Level FlightAware ADS-B (KMCO)
21:38 27.1029 -81.2031 178° South 438 504 36,000  Level FlightAware ADS-B (KMCO)
21:41 26.7804 -81.1883 178° South 442 509 36,000  Level FlightAware ADS-B (KMCO)
21:41 26.6930 -81.1922 182° South 426 490 36,000  Level FlightAware ADS-B (KMCO)
21:42 26.6583 -81.2074 201° Southwest 417 480 36,000  Level FlightAware ADS-B (KMCO)
21:42 26.5860 -81.2442 204° Southwest 419 482 36,000  Level FlightAware ADS-B (KMCO)
21:44 26.3761 -81.3499 204° Southwest 425 489 36,000  Level FlightAware ADS-B (KMCO)
21:45 26.3080 -81.3841 204° Southwest 425 489 36,000  Level FlightAware ADS-B (KMCO)
21:46 26.2297 -81.4234 204° Southwest 422 486 36,000  Level FlightAware ADS-B (KMCO)
21:46 26.1580 -81.4593 204° Southwest 419 482 36,000  Level FlightAware ADS-B (KMCO)
21:47 26.0856 -81.4956 204° Southwest 420 483 36,000  Level FlightAware ADS-B (KMCO)
21:48 26.0125 -81.5320 204° Southwest 419 482 36,000  Level FlightAware ADS-B (KMCO)
21:48 25.9529 -81.5618 204° Southwest 418 481 36,000  Level FlightAware ADS-B (KMCO)
21:49 25.8968 -81.5898 204° Southwest 418 481 36,000  Level FlightAware ADS-B (KMCO)
21:49 25.8444 -81.6159 204° Southwest 419 482 36,000  Level FlightAware ADS-B (KMCO)
21:51 25.7125 -81.6853 204° Southwest 428 493 36,000  Level Miami Center
21:52 25.6106 -81.7364 204° Southwest 422 486 36,000  Level Miami Center
21:53 25.5044 -81.7872 203° Southwest 417 480 36,000  Level Miami Center
21:54 25.3942 -81.8403 203° Southwest 417 480 36,000  Level Miami Center
21:55 25.2900 -81.8933 205° Southwest 417 480 36,000 -780 Level Miami Center
22:04 24.3511 -82.3497 201° Southwest 396 456 28,400 -960 Descending Miami Center
22:05 24.5237 -82.2389 203° Southwest  Level FlightAware Approximate
22:05 24.2575 -82.3958 204° Southwest 383 441 26,700  Level Miami Center
22:06 24.4470 -82.2728 201° Southwest  Level FlightAware Approximate
22:06 24.1681 -82.4394 204° Southwest 383 441 25,100  Level Miami Center
22:07 24.3699 -82.3059 201° Southwest  Level FlightAware Approximate
22:07 24.0744 -82.4853 204° Southwest 383 441 23,400  Level Miami Center
22:08 24.2928 -82.3390 201° Southwest  Level FlightAware Approximate
22:08 23.9792 -82.5219 199° South 378 435 22,000  Level Miami Center
22:09 24.2157 -82.3720 201° Southwest  Level FlightAware Approximate
22:10 23.8186 -82.4928 171° South  Level FlightAware Approximate
22:17 23.2432 -82.4193 175° South  Level FlightAware Approximate
22:18 23.1605 -82.4167 180° South  Level FlightAware Approximate
22:19 23.0787 -82.4057 170° South  Level FlightAware Approximate
22:20 22.9964 -82.4000 180° South  Level FlightAware Approximate
22:21 22.9891 -82.4091 180° South  Level Estimated
22:22 22.9891 -82.4091 180° South  Level Estimated
22:23 22.9891 -82.4091 180° South  Level Estimated
22:24 22.9891 -82.4091 180° South  Level Estimated
22:25 22.9891 -82.4091 180° South  Level Estimated
22:26 22.9891 -82.4091 180° South  Level Estimated
22:27 22.9891 -82.4091 180° South  Level Estimated
22:28 22.9891 -82.4091 180° South  Level Estimated
22:29 22.9891 -82.4091 180° South  Level Estimated
22:30 22.9891 -82.4091 180° South  Level Estimated
22:31 22.9891 -82.4091 180° South  Level Estimated
22:32 22.9891 -82.4091 180° South  Level Estimated
22:33 22.9891 -82.4091 180° South  Level Estimated
22:34 22.9891 -82.4091 180° South  Level Estimated
22:35 22.9891 -82.4091 180° South  Level Estimated
22:36 22.9891 -82.4091 180° South  Level Estimated
22:37 22.9891 -82.4091 180° South  Level Estimated
22:38 22.9891 -82.4091 180° South  Level Estimated